createdAt,value
2023-04-27T00:00:50.318Z,24.37
2023-04-27T00:01:50.400Z,24.38
2023-04-27T00:02:50.457Z,24.39
2023-04-27T00:03:50.516Z,24.41
2023-04-27T00:04:50.625Z,24.40
2023-04-27T00:05:50.755Z,24.41
2023-04-27T00:06:50.493Z,24.41
2023-04-27T00:07:50.562Z,24.41
2023-04-27T00:08:50.609Z,24.42
2023-04-27T00:09:50.631Z,24.42
2023-04-27T00:10:50.617Z,24.42
2023-04-27T00:11:50.639Z,24.42
2023-04-27T00:12:50.647Z,24.44
2023-04-27T00:13:50.700Z,24.46
2023-04-27T00:14:50.790Z,24.43
2023-04-27T00:15:50.844Z,24.46
2023-04-27T00:16:50.959Z,24.46
2023-04-27T00:17:50.969Z,24.45
2023-04-27T00:18:51.009Z,24.45
2023-04-27T00:19:51.067Z,24.47
2023-04-27T00:20:51.114Z,24.46
2023-04-27T00:21:51.158Z,24.46
2023-04-27T00:22:51.228Z,24.48
2023-04-27T00:23:51.273Z,24.48
2023-04-27T00:24:51.340Z,24.47
2023-04-27T00:25:51.386Z,24.48
2023-04-27T00:26:51.460Z,24.47
2023-04-27T00:27:51.507Z,24.48
2023-04-27T00:28:51.546Z,24.48
2023-04-27T00:29:51.605Z,24.49
2023-04-27T00:30:51.675Z,24.49
2023-04-27T00:31:51.760Z,24.50
2023-04-27T00:32:51.832Z,24.50
2023-04-27T00:33:51.859Z,24.51
2023-04-27T00:34:51.909Z,24.51
2023-04-27T00:35:51.936Z,24.54
2023-04-27T00:36:51.996Z,24.51
2023-04-27T00:37:52.037Z,24.51
2023-04-27T00:38:52.096Z,24.51
2023-04-27T00:39:52.149Z,24.52
2023-04-27T00:40:52.203Z,24.53
2023-04-27T00:41:52.233Z,24.53
2023-04-27T00:42:52.254Z,24.52
2023-04-27T00:43:52.260Z,24.56
2023-04-27T00:44:52.282Z,24.55
2023-04-27T00:45:52.301Z,24.54
2023-04-27T00:46:52.321Z,24.55
2023-04-27T00:47:52.350Z,24.54
2023-04-27T00:48:52.316Z,24.55
2023-04-27T00:49:52.363Z,24.56
2023-04-27T00:50:52.350Z,24.57
2023-04-27T00:51:52.361Z,24.56
2023-04-27T00:52:52.368Z,24.57
2023-04-27T00:53:52.362Z,24.58
2023-04-27T00:54:52.378Z,24.60
2023-04-27T00:55:52.410Z,24.61
2023-04-27T00:56:52.412Z,24.58
2023-04-27T00:57:52.428Z,24.58
2023-04-27T00:58:52.425Z,24.59
2023-04-27T00:59:52.460Z,24.59
2023-04-27T01:00:52.474Z,24.60
2023-04-27T01:01:52.449Z,24.62
2023-04-27T01:02:52.629Z,24.60
2023-04-27T01:03:52.631Z,24.60
2023-04-27T01:04:52.507Z,24.61
2023-04-27T01:05:52.497Z,24.63
2023-04-27T01:06:52.510Z,24.64
2023-04-27T01:07:52.542Z,24.63
2023-04-27T01:08:52.542Z,24.64
2023-04-27T01:09:52.555Z,24.63
2023-04-27T01:10:52.539Z,24.65
2023-04-27T01:11:52.569Z,24.63
2023-04-27T01:12:52.569Z,24.63
2023-04-27T01:13:52.566Z,24.64
2023-04-27T01:14:52.576Z,24.65
2023-04-27T01:15:52.590Z,24.66
2023-04-27T01:16:52.748Z,24.67
2023-04-27T01:17:52.664Z,24.67
2023-04-27T01:18:52.645Z,24.67
2023-04-27T01:19:52.658Z,24.67
2023-04-27T01:20:52.670Z,24.66
2023-04-27T01:21:52.724Z,24.68
2023-04-27T01:22:52.731Z,24.68
2023-04-27T01:23:52.736Z,24.67
2023-04-27T01:24:52.792Z,24.68
2023-04-27T01:25:52.833Z,24.67
2023-04-27T01:26:52.885Z,24.68
2023-04-27T01:27:52.949Z,24.68
2023-04-27T01:28:53.038Z,24.69
2023-04-27T01:29:53.036Z,24.69
2023-04-27T01:30:53.053Z,24.71
2023-04-27T01:31:53.081Z,24.70
2023-04-27T01:32:53.195Z,24.72
2023-04-27T01:33:53.183Z,24.71
2023-04-27T01:34:53.251Z,24.71
2023-04-27T01:35:53.260Z,24.71
2023-04-27T01:36:53.317Z,24.72
2023-04-27T01:37:53.387Z,24.73
2023-04-27T01:38:53.439Z,24.72
2023-04-27T01:39:53.497Z,24.73
2023-04-27T01:40:53.536Z,24.72
2023-04-27T01:41:53.609Z,24.71
2023-04-27T01:42:53.674Z,24.74
2023-04-27T01:43:53.712Z,24.72
2023-04-27T01:44:53.788Z,24.74
2023-04-27T01:45:53.819Z,24.74
2023-04-27T01:46:53.797Z,24.75
2023-04-27T01:47:53.867Z,24.75
2023-04-27T01:48:53.806Z,24.75
2023-04-27T01:49:53.803Z,24.75
2023-04-27T01:50:53.811Z,24.74
2023-04-27T01:51:53.832Z,24.75
2023-04-27T01:52:53.851Z,24.76
2023-04-27T01:53:53.833Z,24.77
2023-04-27T01:54:53.873Z,24.78
2023-04-27T01:55:53.850Z,24.76
2023-04-27T01:56:53.873Z,24.78
2023-04-27T01:57:53.870Z,24.75
2023-04-27T01:58:53.883Z,24.77
2023-04-27T01:59:53.894Z,24.79
2023-04-27T02:00:53.915Z,24.80
2023-04-27T02:01:53.930Z,24.81
2023-04-27T02:02:53.980Z,24.79
2023-04-27T02:03:54.061Z,24.79
2023-04-27T02:04:54.038Z,24.80
2023-04-27T02:05:53.911Z,24.81
2023-04-27T02:06:53.912Z,24.79
2023-04-27T02:07:53.936Z,24.80
2023-04-27T02:08:53.922Z,24.82
2023-04-27T02:09:53.939Z,24.81
2023-04-27T02:10:53.940Z,24.80
2023-04-27T02:11:53.956Z,24.83
2023-04-27T02:12:53.973Z,24.83
2023-04-27T02:13:53.992Z,24.82
2023-04-27T02:14:54.069Z,24.80
2023-04-27T02:15:54.174Z,24.80
2023-04-27T02:16:54.135Z,24.83
2023-04-27T02:17:54.199Z,24.81
2023-04-27T02:18:54.141Z,24.82
2023-04-27T02:19:54.153Z,24.82
2023-04-27T02:20:54.133Z,24.82
2023-04-27T02:21:54.157Z,24.83
2023-04-27T02:22:54.165Z,24.85
2023-04-27T02:23:54.200Z,24.83
2023-04-27T02:24:54.199Z,24.84
2023-04-27T02:25:54.192Z,24.82
2023-04-27T02:26:54.215Z,24.83
2023-04-27T02:27:54.296Z,24.84
2023-04-27T02:28:54.325Z,24.86
2023-04-27T02:29:54.397Z,24.85
2023-04-27T02:30:54.447Z,24.85
2023-04-27T02:31:54.560Z,24.86
2023-04-27T02:32:54.593Z,24.84
2023-04-27T02:33:54.624Z,24.87
2023-04-27T02:34:54.647Z,24.87
2023-04-27T02:35:54.715Z,24.83
2023-04-27T02:36:54.742Z,24.87
2023-04-27T02:37:54.796Z,24.85
2023-04-27T02:38:54.849Z,24.87
2023-04-27T02:39:54.898Z,24.87
2023-04-27T02:40:54.949Z,24.87
2023-04-27T02:41:55.008Z,24.86
2023-04-27T02:42:55.053Z,24.88
2023-04-27T02:43:55.104Z,24.87
2023-04-27T02:44:55.144Z,24.88
2023-04-27T02:45:55.201Z,24.86
2023-04-27T02:46:55.347Z,24.87
2023-04-27T02:47:55.381Z,24.88
2023-04-27T02:48:55.311Z,24.90
2023-04-27T02:49:55.332Z,24.91
2023-04-27T02:50:55.339Z,24.90
2023-04-27T02:51:55.347Z,24.89
2023-04-27T02:52:55.391Z,24.90
2023-04-27T02:53:55.365Z,24.89
2023-04-27T02:54:55.389Z,24.89
2023-04-27T02:55:55.406Z,24.92
2023-04-27T02:56:55.414Z,24.92
2023-04-27T02:57:55.443Z,24.91
2023-04-27T02:58:55.457Z,24.91
2023-04-27T02:59:55.488Z,24.93
2023-04-27T03:00:55.500Z,24.93
2023-04-27T03:01:55.488Z,24.91
2023-04-27T03:02:55.639Z,24.92
2023-04-27T03:03:55.690Z,24.94
2023-04-27T03:04:55.527Z,24.93
2023-04-27T03:05:55.550Z,24.94
2023-04-27T03:06:55.634Z,24.94
2023-04-27T03:07:55.680Z,24.94
2023-04-27T03:08:55.732Z,24.94
2023-04-27T03:09:55.776Z,24.95
2023-04-27T03:10:55.755Z,24.96
2023-04-27T03:11:55.796Z,24.94
2023-04-27T03:12:55.771Z,24.95
2023-04-27T03:13:55.800Z,24.94
2023-04-27T03:14:55.807Z,24.96
2023-04-27T03:15:55.882Z,24.98
2023-04-27T03:16:55.901Z,24.97
2023-04-27T03:17:55.874Z,24.98
2023-04-27T03:18:55.841Z,24.97
2023-04-27T03:19:55.841Z,24.97
2023-04-27T03:20:55.831Z,24.97
2023-04-27T03:21:55.844Z,24.98
2023-04-27T03:22:55.872Z,24.99
2023-04-27T03:23:55.882Z,25.00
2023-04-27T03:24:55.888Z,24.99
2023-04-27T03:25:55.874Z,25.01
2023-04-27T03:26:55.897Z,24.99
2023-04-27T03:27:55.901Z,25.01
2023-04-27T03:28:55.899Z,25.01
2023-04-27T03:29:55.917Z,25.02
2023-04-27T03:30:55.932Z,25.03
2023-04-27T03:31:55.976Z,25.00
2023-04-27T03:32:56.016Z,25.03
2023-04-27T03:33:55.985Z,25.03
2023-04-27T03:34:55.982Z,25.04
2023-04-27T03:35:55.993Z,25.03
2023-04-27T03:36:55.982Z,25.05
2023-04-27T03:37:56.019Z,25.04
2023-04-27T03:38:56.020Z,25.05
2023-04-27T03:39:56.017Z,25.05
2023-04-27T03:40:56.034Z,25.06
2023-04-27T03:41:56.066Z,25.06
2023-04-27T03:42:57.060Z,25.06
2023-04-27T03:43:56.216Z,25.07
2023-04-27T03:44:56.278Z,25.09
2023-04-27T03:45:56.396Z,25.08
2023-04-27T03:46:56.362Z,25.09
2023-04-27T03:47:56.390Z,25.11
2023-04-27T03:48:56.361Z,25.08
2023-04-27T03:49:56.373Z,25.10
2023-04-27T03:50:56.392Z,25.10
2023-04-27T03:51:56.403Z,25.11
2023-04-27T03:52:56.427Z,25.09
2023-04-27T03:53:56.480Z,25.14
2023-04-27T03:54:56.462Z,25.15
2023-04-27T03:55:56.441Z,25.13
2023-04-27T03:56:56.425Z,25.13
2023-04-27T03:57:56.498Z,25.15
2023-04-27T03:58:56.472Z,25.16
2023-04-27T03:59:56.470Z,25.15
2023-04-27T04:00:56.458Z,25.17
2023-04-27T04:01:57.460Z,25.17
2023-04-27T04:02:56.706Z,25.20
2023-04-27T04:03:56.696Z,25.18
2023-04-27T04:04:56.877Z,25.22
2023-04-27T04:05:56.571Z,25.20
2023-04-27T04:06:56.592Z,25.20
2023-04-27T04:07:56.626Z,25.22
2023-04-27T04:08:56.626Z,25.23
2023-04-27T04:09:56.640Z,25.23
2023-04-27T04:10:56.637Z,25.23
2023-04-27T04:11:56.633Z,25.23
2023-04-27T04:12:56.686Z,25.27
2023-04-27T04:13:56.722Z,25.26
2023-04-27T04:14:56.764Z,25.28
2023-04-27T04:15:56.927Z,25.29
2023-04-27T04:16:56.900Z,25.29
2023-04-27T04:17:56.914Z,25.28
2023-04-27T04:18:56.912Z,25.32
2023-04-27T04:19:56.906Z,25.31
2023-04-27T04:20:56.929Z,25.33
2023-04-27T04:21:56.949Z,25.36
2023-04-27T04:22:56.983Z,25.36
2023-04-27T04:23:56.993Z,25.37
2023-04-27T04:24:56.991Z,25.39
2023-04-27T04:25:57.013Z,25.39
2023-04-27T04:26:57.033Z,25.41
2023-04-27T04:27:57.019Z,25.41
2023-04-27T04:28:57.023Z,25.42
2023-04-27T04:29:57.033Z,25.44
2023-04-27T04:30:57.094Z,25.43
2023-04-27T04:31:57.069Z,25.45
2023-04-27T04:32:57.085Z,25.46
2023-04-27T04:33:57.078Z,25.47
2023-04-27T04:34:57.082Z,25.48
2023-04-27T04:35:57.074Z,25.49
2023-04-27T04:36:57.075Z,25.51
2023-04-27T04:37:57.074Z,25.51
2023-04-27T04:38:57.150Z,25.50
2023-04-27T04:39:57.085Z,25.53
2023-04-27T04:40:57.158Z,25.55
2023-04-27T04:41:57.217Z,25.55
2023-04-27T04:42:57.250Z,25.55
2023-04-27T04:43:57.247Z,25.56
2023-04-27T04:44:57.271Z,25.58
2023-04-27T04:45:57.274Z,25.60
2023-04-27T04:46:57.331Z,25.61
2023-04-27T04:47:57.273Z,25.61
2023-04-27T04:48:57.282Z,25.61
2023-04-27T04:49:57.292Z,25.64
2023-04-27T04:50:57.310Z,25.64
2023-04-27T04:51:57.327Z,25.64
2023-04-27T04:52:57.362Z,25.65
2023-04-27T04:53:57.377Z,25.68
2023-04-27T04:54:57.364Z,25.64
2023-04-27T04:55:57.376Z,25.69
2023-04-27T04:56:57.364Z,25.68
2023-04-27T04:57:57.375Z,25.70
2023-04-27T04:58:57.384Z,25.71
2023-04-27T04:59:57.408Z,25.71
2023-04-27T05:00:57.392Z,25.71
2023-04-27T05:01:57.554Z,25.70
2023-04-27T05:02:57.496Z,25.69
2023-04-27T05:03:57.526Z,25.70
2023-04-27T05:04:57.646Z,25.69
2023-04-27T05:05:57.449Z,25.70
2023-04-27T05:06:57.425Z,25.71
2023-04-27T05:07:57.451Z,25.72
2023-04-27T05:08:57.440Z,25.71
2023-04-27T05:09:57.499Z,25.72
2023-04-27T05:10:57.447Z,25.74
2023-04-27T05:11:57.489Z,25.76
2023-04-27T05:12:57.504Z,25.75
2023-04-27T05:13:57.524Z,25.78
2023-04-27T05:14:57.516Z,25.79
2023-04-27T05:15:57.529Z,25.81
2023-04-27T05:16:57.470Z,25.81
2023-04-27T05:17:57.551Z,25.82
2023-04-27T05:18:57.552Z,25.86
2023-04-27T05:19:57.611Z,25.85
2023-04-27T05:20:57.670Z,25.86
2023-04-27T05:21:57.696Z,25.86
2023-04-27T05:22:57.765Z,25.88
2023-04-27T05:23:57.823Z,25.91
2023-04-27T05:24:57.852Z,25.90
2023-04-27T05:25:57.931Z,25.94
2023-04-27T05:26:58.605Z,26.89
2023-04-27T05:27:57.952Z,27.40
2023-04-27T05:28:57.999Z,28.40
2023-04-27T05:29:58.049Z,28.68
2023-04-27T05:30:58.115Z,28.81
2023-04-27T05:31:58.229Z,28.95
2023-04-27T05:32:58.260Z,28.80
2023-04-27T05:33:58.301Z,28.98
2023-04-27T05:34:58.357Z,30.04
2023-04-27T05:35:58.417Z,30.01
2023-04-27T05:36:58.564Z,30.12
2023-04-27T05:37:58.543Z,29.77
2023-04-27T05:38:58.541Z,29.88
2023-04-27T05:39:58.758Z,29.76
2023-04-27T05:40:58.677Z,29.83
2023-04-27T05:41:58.727Z,29.95
2023-04-27T05:42:58.731Z,30.13
2023-04-27T05:43:58.946Z,30.09
2023-04-27T05:44:58.728Z,30.04
2023-04-27T05:45:58.833Z,29.83
2023-04-27T05:46:58.793Z,29.73
2023-04-27T05:47:58.932Z,30.78
2023-04-27T05:48:58.936Z,30.15
2023-04-27T05:49:58.960Z,30.26
2023-04-27T05:50:58.957Z,31.28
2023-04-27T05:51:58.965Z,30.96
2023-04-27T05:52:58.947Z,31.53
2023-04-27T05:53:58.969Z,31.05
2023-04-27T05:54:58.953Z,31.04
2023-04-27T05:55:58.982Z,30.74
2023-04-27T05:56:58.983Z,30.94
2023-04-27T05:58:07.838Z,31.11
2023-04-27T05:59:02.399Z,31.69
2023-04-27T05:59:58.959Z,31.20
2023-04-27T06:00:58.950Z,31.42
2023-04-27T06:01:59.021Z,30.78
2023-04-27T06:02:59.024Z,30.62
2023-04-27T06:03:59.050Z,30.49
2023-04-27T06:04:58.943Z,30.46
2023-04-27T06:05:59.265Z,30.34
2023-04-27T06:06:58.915Z,30.29
2023-04-27T06:07:58.904Z,30.45
2023-04-27T06:08:58.897Z,30.28
2023-04-27T06:09:58.881Z,30.38
2023-04-27T06:10:58.892Z,30.33
2023-04-27T06:11:58.871Z,30.25
2023-04-27T06:12:59.155Z,30.33
2023-04-27T06:13:58.888Z,30.30
2023-04-27T06:14:58.832Z,30.25
2023-04-27T06:15:58.883Z,30.25
2023-04-27T06:16:58.861Z,30.83
2023-04-27T06:17:58.833Z,31.16
2023-04-27T06:18:58.805Z,30.59
2023-04-27T06:19:58.835Z,30.27
2023-04-27T06:20:58.815Z,30.23
2023-04-27T06:21:58.795Z,30.64
2023-04-27T06:22:58.797Z,30.40
2023-04-27T06:23:58.796Z,30.26
2023-04-27T06:24:58.761Z,30.29
2023-04-27T06:25:58.793Z,30.74
2023-04-27T06:26:58.763Z,30.63
2023-04-27T06:27:58.747Z,30.32
2023-04-27T06:28:58.731Z,30.54
2023-04-27T06:29:58.790Z,30.22
2023-04-27T06:30:59.126Z,30.04
2023-04-27T06:31:58.789Z,31.04
2023-04-27T06:32:58.762Z,31.05
2023-04-27T06:33:58.735Z,30.99
2023-04-27T06:34:58.727Z,31.11
2023-04-27T06:35:59.144Z,30.93
2023-04-27T06:36:58.703Z,30.82
2023-04-27T06:37:59.209Z,30.65
2023-04-27T06:38:58.692Z,30.80
2023-04-27T06:39:58.681Z,30.68
2023-04-27T06:40:58.676Z,30.70
2023-04-27T06:41:58.679Z,30.55
2023-04-27T06:42:58.691Z,30.46
2023-04-27T06:43:59.207Z,30.84
2023-04-27T06:44:58.633Z,30.65
2023-04-27T06:45:58.686Z,30.64
2023-04-27T06:46:58.643Z,30.52
2023-04-27T06:47:58.640Z,30.55
2023-04-27T06:48:58.610Z,30.53
2023-04-27T06:49:58.615Z,30.48
2023-04-27T06:50:58.596Z,30.51
2023-04-27T06:51:58.602Z,30.59
2023-04-27T06:52:58.607Z,30.76
2023-04-27T06:53:58.606Z,30.66
2023-04-27T06:54:58.587Z,30.55
2023-04-27T06:55:58.685Z,30.43
2023-04-27T06:56:58.718Z,30.39
2023-04-27T06:57:58.740Z,30.77
2023-04-27T06:58:58.777Z,30.45
2023-04-27T06:59:58.823Z,30.54
2023-04-27T07:00:59.462Z,30.42
2023-04-27T07:01:59.223Z,30.50
2023-04-27T07:02:59.137Z,30.46
2023-04-27T07:03:59.103Z,30.85
2023-04-27T07:04:59.156Z,30.55
2023-04-27T07:05:59.128Z,30.43
2023-04-27T07:06:59.137Z,30.33
2023-04-27T07:08:01.546Z,30.26
2023-04-27T07:08:59.276Z,30.18
2023-04-27T07:09:59.181Z,30.58
2023-04-27T07:10:59.181Z,30.67
2023-04-27T07:11:59.192Z,30.91
2023-04-27T07:12:59.169Z,30.82
2023-04-27T07:13:59.175Z,30.89
2023-04-27T07:14:59.183Z,30.58
2023-04-27T07:15:59.210Z,30.32
2023-04-27T07:16:59.163Z,30.28
2023-04-27T07:17:59.226Z,30.54
2023-04-27T07:18:59.404Z,30.15
2023-04-27T07:19:59.154Z,30.51
2023-04-27T07:20:59.155Z,30.36
2023-04-27T07:21:59.330Z,30.25
2023-04-27T07:22:59.161Z,30.08
2023-04-27T07:23:59.123Z,30.03
2023-04-27T07:24:59.124Z,29.91
2023-04-27T07:25:59.151Z,30.22
2023-04-27T07:26:59.224Z,30.57
2023-04-27T07:27:59.687Z,30.68
2023-04-27T07:28:59.343Z,30.45
2023-04-27T07:29:59.352Z,30.47
2023-04-27T07:30:59.436Z,30.67
2023-04-27T07:31:59.556Z,30.78
2023-04-27T07:32:59.578Z,31.42
2023-04-27T07:33:59.509Z,31.30
2023-04-27T07:34:59.523Z,31.59
2023-04-27T07:35:59.523Z,31.51
2023-04-27T07:36:59.577Z,31.53
2023-04-27T07:37:59.624Z,31.27
2023-04-27T07:38:59.648Z,31.30
2023-04-27T07:39:59.672Z,31.30
2023-04-27T07:40:59.676Z,31.27
2023-04-27T07:41:59.669Z,31.22
2023-04-27T07:42:59.659Z,31.22
2023-04-27T07:43:59.703Z,31.19
2023-04-27T07:44:59.745Z,31.25
2023-04-27T07:45:59.845Z,31.25
2023-04-27T07:46:59.878Z,31.28
2023-04-27T07:47:59.948Z,31.31
2023-04-27T07:49:00.017Z,31.43
2023-04-27T07:50:00.037Z,31.36
2023-04-27T07:51:00.163Z,31.44
2023-04-27T07:52:00.140Z,31.36
2023-04-27T07:53:00.160Z,31.41
2023-04-27T07:54:00.229Z,31.37
2023-04-27T07:55:00.250Z,31.41
2023-04-27T07:56:00.287Z,31.38
2023-04-27T07:57:00.302Z,31.42
2023-04-27T07:58:00.390Z,31.40
2023-04-27T07:59:00.381Z,31.25
2023-04-27T08:00:00.387Z,31.20
2023-04-27T08:01:00.414Z,31.23
2023-04-27T08:02:17.838Z,31.19
2023-04-27T08:03:01.634Z,31.19
2023-04-27T08:04:00.709Z,31.21
2023-04-27T08:05:00.638Z,31.27
2023-04-27T08:06:00.808Z,31.22
2023-04-27T08:07:00.761Z,31.23
2023-04-27T08:08:00.647Z,31.23
2023-04-27T08:09:00.705Z,31.25
2023-04-27T08:10:00.412Z,31.28
2023-04-27T08:11:00.404Z,31.26
2023-04-27T08:12:00.423Z,31.21
2023-04-27T08:13:00.379Z,31.18
2023-04-27T08:14:00.425Z,31.16
2023-04-27T08:15:00.486Z,31.12
2023-04-27T08:16:00.537Z,31.14
2023-04-27T08:17:00.581Z,31.11
2023-04-27T08:18:00.608Z,31.12
2023-04-27T08:19:00.898Z,31.13
2023-04-27T08:20:00.552Z,31.10
2023-04-27T08:21:00.728Z,30.86
2023-04-27T08:22:00.618Z,30.88
2023-04-27T08:23:00.599Z,31.00
2023-04-27T08:24:00.692Z,30.96
2023-04-27T08:25:00.723Z,31.03
2023-04-27T08:26:00.775Z,30.98
2023-04-27T08:27:00.833Z,30.93
2023-04-27T08:28:00.825Z,31.01
2023-04-27T08:29:03.234Z,31.11
2023-04-27T08:30:01.838Z,31.03
2023-04-27T08:31:00.857Z,31.11
2023-04-27T08:32:00.818Z,31.05
2023-04-27T08:33:00.862Z,30.95
2023-04-27T08:34:00.818Z,31.09
2023-04-27T08:35:00.808Z,30.95
2023-04-27T08:36:00.809Z,31.14
2023-04-27T08:37:00.803Z,31.12
2023-04-27T08:38:00.786Z,31.20
2023-04-27T08:39:00.765Z,31.24
2023-04-27T08:40:00.787Z,31.20
2023-04-27T08:41:07.626Z,31.45
2023-04-27T08:42:01.802Z,31.31
2023-04-27T08:43:00.779Z,30.99
2023-04-27T08:44:00.732Z,30.60
2023-04-27T08:45:00.736Z,30.53
2023-04-27T08:46:00.766Z,30.34
2023-04-27T08:47:00.740Z,30.51
2023-04-27T08:48:00.778Z,30.91
2023-04-27T08:49:00.727Z,30.75
2023-04-27T08:50:00.708Z,30.87
2023-04-27T08:51:00.689Z,30.84
2023-04-27T08:52:00.681Z,31.07
2023-04-27T08:53:00.684Z,31.22
2023-04-27T08:54:00.688Z,31.95
2023-04-27T08:55:00.666Z,31.67
2023-04-27T08:56:00.684Z,31.49
2023-04-27T08:57:00.663Z,31.50
2023-04-27T08:58:00.709Z,31.64
2023-04-27T08:59:01.179Z,31.75
2023-04-27T09:00:00.844Z,31.60
2023-04-27T09:01:00.870Z,31.80
2023-04-27T09:02:00.917Z,31.82
2023-04-27T09:03:01.064Z,31.75
2023-04-27T09:04:01.079Z,31.88
2023-04-27T09:05:01.307Z,31.81
2023-04-27T09:06:05.018Z,31.89
2023-04-27T09:07:01.957Z,31.94
2023-04-27T09:08:00.959Z,31.97
2023-04-27T09:09:00.939Z,31.95
2023-04-27T09:10:00.916Z,32.02
2023-04-27T09:11:00.912Z,31.95
2023-04-27T09:12:00.905Z,31.94
2023-04-27T09:13:00.929Z,31.96
2023-04-27T09:14:00.909Z,31.93
2023-04-27T09:15:00.890Z,31.92
2023-04-27T09:16:00.926Z,31.85
2023-04-27T09:17:00.868Z,32.03
2023-04-27T09:18:00.908Z,32.02
2023-04-27T09:19:00.867Z,31.86
2023-04-27T09:20:00.858Z,31.85
2023-04-27T09:21:00.855Z,31.84
2023-04-27T09:22:00.864Z,31.75
2023-04-27T09:23:00.838Z,31.85
2023-04-27T09:24:00.848Z,31.87
2023-04-27T09:25:00.833Z,31.90
2023-04-27T09:26:01.415Z,32.12
2023-04-27T09:27:01.142Z,31.28
2023-04-27T09:28:00.816Z,31.72
2023-04-27T09:29:01.204Z,31.70
2023-04-27T09:30:00.813Z,31.14
2023-04-27T09:31:01.226Z,30.77
2023-04-27T09:32:01.014Z,31.37
2023-04-27T09:33:01.030Z,31.41
2023-04-27T09:34:01.056Z,31.46
2023-04-27T09:35:01.094Z,31.61
2023-04-27T09:36:01.132Z,31.46
2023-04-27T09:37:01.198Z,31.74
2023-04-27T09:38:01.286Z,32.19
2023-04-27T09:39:01.329Z,32.11
2023-04-27T09:40:01.415Z,31.46
2023-04-27T09:41:01.712Z,31.16
2023-04-27T09:42:01.514Z,31.39
2023-04-27T09:43:01.483Z,31.07
2023-04-27T09:44:01.532Z,31.20
2023-04-27T09:45:01.553Z,31.17
2023-04-27T09:46:01.713Z,31.11
2023-04-27T09:47:01.643Z,31.01
2023-04-27T09:48:01.758Z,30.90
2023-04-27T09:49:01.719Z,30.83
2023-04-27T09:50:01.762Z,30.76
2023-04-27T09:51:02.213Z,30.64
2023-04-27T09:52:01.861Z,30.58
2023-04-27T09:53:01.921Z,30.49
2023-04-27T09:54:01.976Z,30.44
2023-04-27T09:55:02.027Z,30.34
2023-04-27T09:56:02.237Z,30.31
2023-04-27T09:57:02.152Z,30.21
2023-04-27T09:58:02.204Z,30.16
2023-04-27T09:59:02.261Z,30.11
2023-04-27T10:00:02.327Z,30.01
2023-04-27T10:01:02.401Z,29.97
2023-04-27T10:02:10.014Z,29.90
2023-04-27T10:03:03.527Z,29.80
2023-04-27T10:04:02.583Z,29.74
2023-04-27T10:05:02.456Z,29.67
2023-04-27T10:06:02.414Z,29.57
2023-04-27T10:07:02.426Z,29.55
2023-04-27T10:08:02.436Z,29.47
2023-04-27T10:09:02.427Z,29.43
2023-04-27T10:10:02.396Z,29.35
2023-04-27T10:11:02.411Z,29.29
2023-04-27T10:12:02.376Z,29.27
2023-04-27T10:13:02.412Z,29.19
2023-04-27T10:14:02.364Z,29.16
2023-04-27T10:15:02.364Z,29.12
2023-04-27T10:16:02.336Z,29.09
2023-04-27T10:17:02.422Z,29.06
2023-04-27T10:18:02.349Z,29.02
2023-04-27T10:19:02.314Z,29.01
2023-04-27T10:20:02.324Z,28.96
2023-04-27T10:21:02.299Z,28.92
2023-04-27T10:22:02.327Z,28.90
2023-04-27T10:23:02.341Z,28.90
2023-04-27T10:24:02.715Z,28.90
2023-04-27T10:25:02.362Z,28.87
2023-04-27T10:26:02.415Z,28.86
2023-04-27T10:27:02.479Z,28.78
2023-04-27T10:28:02.603Z,28.78
2023-04-27T10:29:02.584Z,28.78
2023-04-27T10:30:02.644Z,28.78
2023-04-27T10:31:02.741Z,28.78
2023-04-27T10:32:02.713Z,28.78
2023-04-27T10:33:02.830Z,28.74
2023-04-27T10:34:02.831Z,28.72
2023-04-27T10:35:02.880Z,28.73
2023-04-27T10:36:02.950Z,28.68
2023-04-27T10:37:03.013Z,28.67
2023-04-27T10:38:03.076Z,28.67
2023-04-27T10:39:03.106Z,28.64
2023-04-27T10:40:03.113Z,28.64
2023-04-27T10:41:03.139Z,28.62
2023-04-27T10:42:03.165Z,28.60
2023-04-27T10:43:03.162Z,28.60
2023-04-27T10:44:03.220Z,28.58
2023-04-27T10:45:03.185Z,28.59
2023-04-27T10:46:03.222Z,28.56
2023-04-27T10:47:04.137Z,28.58
2023-04-27T10:48:03.285Z,28.54
2023-04-27T10:49:03.205Z,28.53
2023-04-27T10:50:03.212Z,28.50
2023-04-27T10:51:03.242Z,28.45
2023-04-27T10:52:03.765Z,28.44
2023-04-27T10:53:03.258Z,28.41
2023-04-27T10:54:03.273Z,28.40
2023-04-27T10:55:03.733Z,28.40
2023-04-27T10:56:03.288Z,28.37
2023-04-27T10:57:03.356Z,28.35
2023-04-27T10:58:03.402Z,28.33
2023-04-27T10:59:03.471Z,28.31
2023-04-27T11:00:03.486Z,28.32
2023-04-27T11:01:03.492Z,28.32
2023-04-27T11:02:03.599Z,28.33
2023-04-27T11:03:03.681Z,28.32
2023-04-27T11:04:03.661Z,28.32
2023-04-27T11:05:03.741Z,28.31
2023-04-27T11:06:03.796Z,28.32
2023-04-27T11:07:03.867Z,28.31
2023-04-27T11:08:03.887Z,28.30
2023-04-27T11:09:03.873Z,28.29
2023-04-27T11:10:03.986Z,28.28
2023-04-27T11:11:04.061Z,28.29
2023-04-27T11:12:04.149Z,28.27
2023-04-27T11:13:04.143Z,28.26
2023-04-27T11:14:04.247Z,28.24
2023-04-27T11:15:04.278Z,28.25
2023-04-27T11:16:04.370Z,28.24
2023-04-27T11:17:04.347Z,28.19
2023-04-27T11:18:04.459Z,28.19
2023-04-27T11:19:04.394Z,28.17
2023-04-27T11:20:04.414Z,28.16
2023-04-27T11:21:04.464Z,28.12
2023-04-27T11:22:04.783Z,28.10
2023-04-27T11:23:04.480Z,28.08
2023-04-27T11:24:04.507Z,28.07
2023-04-27T11:25:04.527Z,28.05
2023-04-27T11:26:04.526Z,28.01
2023-04-27T11:27:04.532Z,28.04
2023-04-27T11:28:04.583Z,28.02
2023-04-27T11:29:04.610Z,28.06
2023-04-27T11:30:04.685Z,28.06
2023-04-27T11:31:04.790Z,28.07
2023-04-27T11:32:04.868Z,28.08
2023-04-27T11:33:04.916Z,28.12
2023-04-27T11:34:04.910Z,28.10
2023-04-27T11:35:04.972Z,28.15
2023-04-27T11:36:04.951Z,28.16
2023-04-27T11:37:14.681Z,28.16
2023-04-27T11:38:05.983Z,28.18
2023-04-27T11:39:05.034Z,28.16
2023-04-27T11:40:05.048Z,28.17
2023-04-27T11:41:04.962Z,28.16
2023-04-27T11:42:04.956Z,28.17
2023-04-27T11:43:04.929Z,28.16
2023-04-27T11:44:04.927Z,28.19
2023-04-27T11:45:04.921Z,28.19
2023-04-27T11:46:04.928Z,28.18
2023-04-27T11:47:04.979Z,28.18
2023-04-27T11:48:04.902Z,28.17
2023-04-27T11:49:04.887Z,28.18
2023-04-27T11:50:04.909Z,28.18
2023-04-27T11:51:04.868Z,28.20
2023-04-27T11:52:04.889Z,28.17
2023-04-27T11:53:04.901Z,28.16
2023-04-27T11:54:04.916Z,28.15
2023-04-27T11:55:04.941Z,28.15
2023-04-27T11:56:04.976Z,28.17
2023-04-27T11:57:05.006Z,28.16
2023-04-27T11:58:05.007Z,28.16
2023-04-27T11:59:05.080Z,28.18
2023-04-27T12:00:05.084Z,28.18
2023-04-27T12:01:05.122Z,28.19
2023-04-27T12:02:05.197Z,28.21
2023-04-27T12:03:05.294Z,28.20
2023-04-27T12:04:05.372Z,28.21
2023-04-27T12:05:05.373Z,28.22
2023-04-27T12:06:21.631Z,28.24
2023-04-27T12:07:06.268Z,28.22
2023-04-27T12:08:05.279Z,28.23
2023-04-27T12:09:05.255Z,28.21
2023-04-27T12:10:05.273Z,28.22
2023-04-27T12:11:05.220Z,28.20
2023-04-27T12:12:05.220Z,28.18
2023-04-27T12:13:05.263Z,28.18
2023-04-27T12:14:05.213Z,28.17
2023-04-27T12:15:05.211Z,28.16
2023-04-27T12:16:05.191Z,28.15
2023-04-27T12:17:05.247Z,28.18
2023-04-27T12:18:05.215Z,28.16
2023-04-27T12:19:05.191Z,28.17
2023-04-27T12:20:05.192Z,28.15
2023-04-27T12:21:06.351Z,28.15
2023-04-27T12:22:05.288Z,28.15
2023-04-27T12:23:05.311Z,28.13
2023-04-27T12:24:05.355Z,28.16
2023-04-27T12:25:05.402Z,28.13
2023-04-27T12:26:05.406Z,28.13
2023-04-27T12:27:05.505Z,28.14
2023-04-27T12:28:05.432Z,28.16
2023-04-27T12:29:05.460Z,28.15
2023-04-27T12:30:05.517Z,28.16
2023-04-27T12:31:05.568Z,28.16
2023-04-27T12:32:05.581Z,28.15
2023-04-27T12:33:05.635Z,28.16
2023-04-27T12:34:05.665Z,28.16
2023-04-27T12:35:05.776Z,28.15
2023-04-27T12:36:05.716Z,28.16
2023-04-27T12:37:05.752Z,28.16
2023-04-27T12:38:05.801Z,28.06
2023-04-27T12:39:05.799Z,27.97
2023-04-27T12:40:05.833Z,27.93
2023-04-27T12:41:05.876Z,27.86
2023-04-27T12:42:05.886Z,27.80
2023-04-27T12:43:05.916Z,27.77
2023-04-27T12:44:05.923Z,27.71
2023-04-27T12:45:05.942Z,27.66
2023-04-27T12:46:05.960Z,27.60
2023-04-27T12:47:06.288Z,27.58
2023-04-27T12:48:06.022Z,27.58
2023-04-27T12:49:06.070Z,27.53
2023-04-27T12:50:06.150Z,27.48
2023-04-27T12:51:06.226Z,27.39
2023-04-27T12:52:06.269Z,27.36
2023-04-27T12:53:06.299Z,27.32